createdAt,value
2017-08-24T00:00:36.206Z,0
2017-08-24T00:01:36.199Z,0
2017-08-24T00:02:35.970Z,0
2017-08-24T00:03:36.250Z,0
2017-08-24T00:05:35.974Z,0
2017-08-24T00:06:36.315Z,0
2017-08-24T00:07:36.342Z,0
2017-08-24T00:08:36.338Z,0
2017-08-24T00:09:36.388Z,0
2017-08-24T00:10:51.003Z,0
2017-08-24T00:11:36.099Z,0
2017-08-24T00:12:36.459Z,0
2017-08-24T00:13:36.456Z,0
2017-08-24T00:14:36.508Z,0
2017-08-24T00:15:36.207Z,0
2017-08-24T00:16:36.536Z,0
2017-08-24T00:17:36.542Z,0
2017-08-24T00:18:36.584Z,0
2017-08-24T00:19:51.173Z,0
2017-08-24T00:21:36.652Z,0
2017-08-24T00:22:36.356Z,0
2017-08-24T00:23:36.694Z,0
2017-08-24T00:24:36.737Z,0
2017-08-24T00:25:36.415Z,0
2017-08-24T00:26:51.358Z,0
2017-08-24T00:27:36.773Z,0
2017-08-24T00:28:36.493Z,0
2017-08-24T00:29:36.501Z,0
2017-08-24T00:30:36.836Z,0
2017-08-24T00:31:36.870Z,0
2017-08-24T00:32:36.930Z,0
2017-08-24T00:35:51.548Z,0
2017-08-24T00:36:51.563Z,0
2017-08-24T00:37:37.299Z,0
2017-08-24T00:38:51.616Z,0
2017-08-24T00:39:37.041Z,0
2017-08-24T00:40:37.081Z,0
2017-08-24T00:41:37.098Z,0
2017-08-24T00:42:51.377Z,0
2017-08-24T00:43:51.728Z,0
2017-08-24T00:44:37.124Z,0
2017-08-24T00:45:37.192Z,0
2017-08-24T00:46:51.475Z,0
2017-08-24T00:47:37.225Z,0
2017-08-24T00:48:37.241Z,0
2017-08-24T00:49:37.285Z,0
2017-08-24T00:50:37.280Z,0
2017-08-24T00:51:37.306Z,0
2017-08-24T00:53:37.347Z,0
2017-08-24T00:54:37.040Z,0
2017-08-24T00:56:37.410Z,0
2017-08-24T00:57:37.181Z,0
2017-08-24T00:58:51.744Z,0
2017-08-24T00:59:52.075Z,0
2017-08-24T01:00:37.508Z,0
2017-08-24T01:01:52.119Z,0
2017-08-24T01:02:37.221Z,0
2017-08-24T01:03:37.574Z,0
2017-08-24T01:04:37.292Z,0
2017-08-24T01:06:37.313Z,0
2017-08-24T01:07:37.673Z,0
2017-08-24T01:08:51.955Z,0
2017-08-24T01:09:37.693Z,0
2017-08-24T01:10:37.123Z,0
2017-08-24T01:11:37.111Z,0
2017-08-24T01:12:37.785Z,0
2017-08-24T01:14:37.808Z,0
2017-08-24T01:16:37.835Z,0
2017-08-24T01:17:37.570Z,0
2017-08-24T01:18:37.586Z,0
2017-08-24T01:19:37.903Z,0
2017-08-24T01:20:37.948Z,0
2017-08-24T01:21:37.347Z,0
2017-08-24T01:22:37.985Z,0
2017-08-24T01:23:38.005Z,0
2017-08-24T01:24:38.026Z,0
2017-08-24T01:25:52.650Z,0
2017-08-24T01:26:38.715Z,0
2017-08-24T01:27:37.774Z,0
2017-08-24T01:28:38.103Z,0
2017-08-24T01:29:38.143Z,0
2017-08-24T01:30:37.855Z,0
2017-08-24T01:31:37.877Z,0
2017-08-24T01:32:52.797Z,0
2017-08-24T01:33:38.218Z,0
2017-08-24T01:34:37.926Z,0
2017-08-24T01:35:38.275Z,0
2017-08-24T01:36:37.976Z,0
2017-08-24T01:37:38.006Z,0
2017-08-24T01:38:52.924Z,0
2017-08-24T01:39:38.362Z,0
2017-08-24T01:40:38.071Z,0
2017-08-24T01:41:38.092Z,0
2017-08-24T01:42:38.410Z,0
2017-08-24T01:43:38.435Z,0
2017-08-24T01:44:38.477Z,0
2017-08-24T01:45:53.078Z,0
2017-08-24T01:46:53.122Z,0
2017-08-24T01:47:37.903Z,0
2017-08-24T01:48:38.244Z,0
2017-08-24T01:49:38.570Z,0
2017-08-24T01:50:38.297Z,0
2017-08-24T01:51:38.287Z,0
2017-08-24T01:52:38.623Z,0
2017-08-24T01:54:38.675Z,0
2017-08-24T01:58:38.450Z,0
2017-08-24T01:59:38.479Z,0
2017-08-24T02:00:38.486Z,0
2017-08-24T02:02:38.859Z,0
2017-08-24T02:03:38.876Z,0
2017-08-24T02:04:38.594Z,0
2017-08-24T02:05:38.910Z,0
2017-08-24T02:06:38.645Z,0
2017-08-24T02:07:38.948Z,0
2017-08-24T02:08:38.985Z,0
2017-08-24T02:09:39.010Z,0
2017-08-24T02:11:39.065Z,0
2017-08-24T02:12:39.058Z,0
2017-08-24T02:13:38.778Z,0
2017-08-24T02:14:39.110Z,0
2017-08-24T02:15:39.119Z,0
2017-08-24T02:16:39.163Z,0
2017-08-24T02:17:53.456Z,0
2017-08-24T02:18:39.191Z,0
2017-08-24T02:19:39.220Z,0
2017-08-24T02:20:53.834Z,0
2017-08-24T02:21:39.363Z,0
2017-08-24T02:23:39.302Z,0
2017-08-24T02:24:39.003Z,0
2017-08-24T02:25:38.743Z,0
2017-08-24T02:26:39.065Z,0
2017-08-24T02:27:53.986Z,0
2017-08-24T02:28:39.426Z,0
2017-08-24T02:29:39.104Z,0
2017-08-24T02:30:54.058Z,0
2017-08-24T02:31:39.472Z,0
2017-08-24T02:32:39.493Z,0
2017-08-24T02:34:08.715Z,0
2017-08-24T02:34:54.126Z,0
2017-08-24T02:35:39.573Z,0
2017-08-24T02:36:39.570Z,0
2017-08-24T02:37:39.614Z,0
2017-08-24T02:38:39.613Z,0
2017-08-24T02:39:39.346Z,0
2017-08-24T02:41:54.347Z,0
2017-08-24T02:42:39.429Z,0
2017-08-24T02:43:39.744Z,0
2017-08-24T02:44:39.434Z,0
2017-08-24T02:45:54.385Z,0
2017-08-24T02:47:39.834Z,0
2017-08-24T02:48:54.451Z,0
2017-08-24T02:49:39.850Z,0
2017-08-24T02:50:39.329Z,0
2017-08-24T02:51:39.913Z,0
2017-08-24T02:52:39.938Z,0
2017-08-24T02:53:39.323Z,0
2017-08-24T02:54:39.351Z,0
2017-08-24T02:55:39.381Z,0
2017-08-24T02:56:40.016Z,0
2017-08-24T02:57:39.714Z,0
2017-08-24T02:58:40.049Z,0
2017-08-24T02:59:39.468Z,0
2017-08-24T03:02:40.130Z,0
2017-08-24T03:03:39.844Z,0
2017-08-24T03:04:40.187Z,0
2017-08-24T03:05:54.806Z,0
2017-08-24T03:06:40.246Z,0
2017-08-24T03:07:40.252Z,0
2017-08-24T03:08:40.285Z,0
2017-08-24T03:09:40.291Z,0
2017-08-24T03:10:40.007Z,0
2017-08-24T03:11:40.351Z,0
2017-08-24T03:12:40.361Z,0
2017-08-24T03:13:54.978Z,0
2017-08-24T03:14:40.419Z,0
2017-08-24T03:15:40.120Z,0
2017-08-24T03:16:40.450Z,0
2017-08-24T03:17:40.449Z,0
2017-08-24T03:19:40.496Z,0
2017-08-24T03:20:54.812Z,0
2017-08-24T03:21:40.565Z,0
2017-08-24T03:22:55.184Z,0
2017-08-24T03:23:40.603Z,0
2017-08-24T03:25:40.616Z,0
2017-08-24T03:26:40.656Z,4
2017-08-24T03:27:40.365Z,4
2017-08-24T03:28:40.713Z,4
2017-08-24T03:29:40.707Z,0
2017-08-24T03:30:55.329Z,4
2017-08-24T03:31:40.776Z,4
2017-08-24T03:32:40.464Z,4
2017-08-24T03:33:40.805Z,4
2017-08-24T03:34:40.814Z,8
2017-08-24T03:35:40.849Z,8
2017-08-24T03:37:10.064Z,8
2017-08-24T03:37:41.153Z,12
2017-08-24T03:38:40.906Z,12
2017-08-24T03:39:40.937Z,16
2017-08-24T03:40:40.938Z,16
2017-08-24T03:41:40.969Z,16
2017-08-24T03:42:40.986Z,20
2017-08-24T03:43:41.024Z,24
2017-08-24T03:44:41.026Z,32
2017-08-24T03:45:41.056Z,36
2017-08-24T03:46:41.071Z,40
2017-08-24T03:47:55.691Z,52
2017-08-24T03:48:55.716Z,64
2017-08-24T03:49:41.146Z,72
2017-08-24T03:50:40.861Z,80
2017-08-24T03:51:41.200Z,96
2017-08-24T03:52:55.801Z,112
2017-08-24T03:53:40.907Z,120
2017-08-24T03:54:41.248Z,128
2017-08-24T03:55:41.263Z,132
2017-08-24T03:56:41.297Z,144
2017-08-24T03:57:41.327Z,148
2017-08-24T03:58:55.932Z,168
2017-08-24T03:59:41.041Z,176
2017-08-24T04:00:41.375Z,188
2017-08-24T04:01:41.415Z,204
2017-08-24T04:02:41.404Z,220
2017-08-24T04:03:41.441Z,244
2017-08-24T04:04:41.468Z,272
2017-08-24T04:05:41.172Z,300
2017-08-24T04:06:41.199Z,332
2017-08-24T04:07:41.509Z,364
2017-08-24T04:08:56.146Z,416
2017-08-24T04:09:40.939Z,444
2017-08-24T04:10:41.273Z,488
2017-08-24T04:11:41.603Z,532
2017-08-24T04:13:41.661Z,624
2017-08-24T04:14:41.647Z,672
2017-08-24T04:15:41.715Z,720
2017-08-24T04:16:41.697Z,772
2017-08-24T04:17:41.726Z,828
2017-08-24T04:18:56.405Z,900
2017-08-24T04:19:41.504Z,952
2017-08-24T04:20:41.494Z,1020
2017-08-24T04:21:41.512Z,1088
2017-08-24T04:22:41.843Z,1156
2017-08-24T04:24:11.060Z,1264
2017-08-24T04:24:56.481Z,1324
2017-08-24T04:25:41.891Z,1392
2017-08-24T04:26:41.927Z,1488
2017-08-24T04:27:41.955Z,1592
2017-08-24T04:28:41.976Z,1700
2017-08-24T04:29:42.004Z,1816
2017-08-24T04:30:42.064Z,1924
2017-08-24T04:31:56.623Z,2060
2017-08-24T04:32:42.065Z,2152
2017-08-24T04:33:42.068Z,2284
2017-08-24T04:35:56.718Z,2596
2017-08-24T04:36:42.124Z,2696
2017-08-24T04:37:56.768Z,2864
2017-08-24T04:38:42.187Z,2968
2017-08-24T04:39:42.214Z,3148
2017-08-24T04:40:42.210Z,3288
2017-08-24T04:41:42.236Z,3388
2017-08-24T04:42:41.966Z,3532
2017-08-24T04:43:42.306Z,3700
2017-08-24T04:44:42.329Z,3904
2017-08-24T04:45:42.318Z,4136
2017-08-24T04:46:42.351Z,4740
2017-08-24T04:47:42.048Z,4856
2017-08-24T04:48:42.409Z,6800
2017-08-24T04:49:42.407Z,11744
2017-08-24T04:50:42.138Z,12480
2017-08-24T04:51:42.452Z,12480
2017-08-24T04:52:57.082Z,14176
2017-08-24T04:53:42.188Z,13888
2017-08-24T04:54:42.509Z,17568
2017-08-24T04:56:11.743Z,19488
2017-08-24T04:56:42.552Z,18944
2017-08-24T04:57:42.287Z,19872
2017-08-24T04:58:42.307Z,21280
2017-08-24T04:59:42.321Z,21696
2017-08-24T05:01:42.385Z,22528
2017-08-24T05:02:42.086Z,23584
2017-08-24T05:03:42.438Z,24832
2017-08-24T05:04:42.729Z,25600
2017-08-24T05:05:42.785Z,25632
2017-08-24T05:06:42.486Z,25728
2017-08-24T05:07:42.834Z,26720
2017-08-24T05:08:42.848Z,27968
2017-08-24T05:09:42.569Z,28672
2017-08-24T05:10:42.902Z,29184
2017-08-24T05:11:57.533Z,29056
2017-08-24T05:12:42.935Z,30048
2017-08-24T05:13:42.987Z,32128
2017-08-24T05:14:42.980Z,26848
2017-08-24T05:15:42.418Z,20704
2017-08-24T05:16:43.056Z,25088
2017-08-24T05:17:43.141Z,29696
2017-08-24T05:19:43.129Z,28160
2017-08-24T05:20:43.157Z,17856
2017-08-24T05:21:43.178Z,13784
2017-08-24T05:22:42.897Z,13556
2017-08-24T05:23:43.224Z,16384
2017-08-24T05:24:42.936Z,17312
2017-08-24T05:26:42.989Z,13660
2017-08-24T05:27:57.958Z,12888
2017-08-24T05:28:43.357Z,19968
2017-08-24T05:29:43.395Z,33504
2017-08-24T05:30:43.414Z,42784
2017-08-24T05:31:43.413Z,40480
2017-08-24T05:32:43.473Z,42656
2017-08-24T05:33:43.168Z,39776
2017-08-24T05:34:43.520Z,36256
2017-08-24T05:35:43.526Z,36224
2017-08-24T05:37:43.594Z,27936
2017-08-24T05:38:43.604Z,20960
2017-08-24T05:39:43.648Z,35360
2017-08-24T05:40:43.673Z,46336
2017-08-24T05:41:58.299Z,49696
2017-08-24T05:42:43.719Z,49440
2017-08-24T05:43:58.044Z,41088
2017-08-24T05:44:43.763Z,37344
2017-08-24T05:45:43.844Z,33216
2017-08-24T05:47:43.867Z,27552
2017-08-24T05:48:43.897Z,21792
2017-08-24T05:49:58.501Z,18016
2017-08-24T05:51:43.967Z,24960
2017-08-24T05:52:43.974Z,39392
2017-08-24T05:53:58.636Z,36704
2017-08-24T05:54:44.096Z,26400
2017-08-24T05:55:44.047Z,31744
2017-08-24T05:56:44.115Z,35488
2017-08-24T05:57:58.735Z,53664
2017-08-24T05:58:58.763Z,59040
2017-08-24T05:59:44.191Z,49472
2017-08-24T06:00:58.814Z,41920
2017-08-24T06:01:44.232Z,59680
2017-08-24T06:02:44.245Z,49312
2017-08-24T06:03:44.309Z,52416
2017-08-24T06:04:58.921Z,41600
2017-08-24T06:05:44.361Z,27680
2017-08-24T06:06:44.057Z,25280
2017-08-24T06:07:44.097Z,23008
2017-08-24T06:08:44.441Z,22080
2017-08-24T06:09:44.447Z,29024
2017-08-24T06:10:44.740Z,30560
2017-08-24T06:11:59.114Z,31008
2017-08-24T06:12:44.285Z,33152
2017-08-24T06:13:44.576Z,35648
2017-08-24T06:14:44.618Z,37184
2017-08-24T06:15:44.637Z,44192
2017-08-24T06:16:44.659Z,44384
2017-08-24T06:17:44.690Z,49152
2017-08-24T06:18:44.743Z,53120
2017-08-24T06:20:44.483Z,52640
2017-08-24T06:21:44.806Z,36320
2017-08-24T06:22:44.845Z,54304
2017-08-24T06:23:45.055Z,62400
2017-08-24T06:24:44.899Z,56416
2017-08-24T06:25:44.917Z,45120
2017-08-24T06:26:44.973Z,51232
2017-08-24T06:27:44.987Z,60672
2017-08-24T06:28:45.032Z,62848
2017-08-24T06:29:45.048Z,56704
2017-08-24T06:30:59.674Z,57408
2017-08-24T06:31:45.121Z,54976
2017-08-24T06:33:45.197Z,62176
2017-08-24T06:34:45.187Z,64832
2017-08-24T06:35:59.832Z,65792
2017-08-24T06:36:44.957Z,68480
2017-08-24T06:37:45.294Z,66400
2017-08-24T06:39:59.957Z,65440
2017-08-24T06:40:59.991Z,71552
2017-08-24T06:41:45.428Z,66144
2017-08-24T06:42:45.456Z,44320
2017-08-24T06:44:45.540Z,27488
2017-08-24T06:45:45.544Z,31968
2017-08-24T06:46:59.881Z,42432
2017-08-24T06:47:45.617Z,36992
2017-08-24T06:48:45.665Z,32672
2017-08-24T06:50:00.257Z,35968
2017-08-24T06:50:45.714Z,29888
2017-08-24T06:51:45.751Z,31520
2017-08-24T06:52:45.996Z,28736
2017-08-24T06:54:00.102Z,25120
2017-08-24T06:54:45.521Z,23424
2017-08-24T06:55:45.549Z,23232
2017-08-24T06:56:45.579Z,23616
2017-08-24T06:57:45.914Z,24960
2017-08-24T06:58:45.682Z,29856
2017-08-24T06:59:45.990Z,27296
2017-08-24T07:00:46.022Z,23616
2017-08-24T07:01:46.021Z,22048
2017-08-24T07:03:45.780Z,20768
2017-08-24T07:04:46.138Z,19232
2017-08-24T07:08:00.833Z,20960
2017-08-24T07:09:46.273Z,28896
2017-08-24T07:10:46.017Z,32704
2017-08-24T07:12:46.374Z,22720
2017-08-24T07:13:46.393Z,23328
2017-08-24T07:14:46.418Z,25184
2017-08-24T07:15:46.506Z,25056
2017-08-24T07:17:01.069Z,23840
2017-08-24T07:17:46.505Z,24160
2017-08-24T07:20:01.146Z,26464
2017-08-24T07:20:46.604Z,32672
2017-08-24T07:21:46.603Z,33696
2017-08-24T07:22:46.690Z,40224
2017-08-24T07:24:00.969Z,43808
2017-08-24T07:24:46.713Z,37280
2017-08-24T07:25:46.748Z,52000
2017-08-24T07:27:01.368Z,54432
2017-08-24T07:28:01.386Z,43776
2017-08-24T07:28:46.516Z,52992
2017-08-24T07:29:46.853Z,54432
2017-08-24T07:30:46.884Z,49952
2017-08-24T07:31:46.915Z,46368
2017-08-24T07:32:46.937Z,43904
2017-08-24T07:34:46.995Z,38432
2017-08-24T07:35:47.013Z,36832
2017-08-24T07:36:47.058Z,34272
2017-08-24T07:37:46.757Z,35040
2017-08-24T07:38:46.815Z,33920
2017-08-24T07:40:01.441Z,37920
2017-08-24T07:40:46.874Z,43168
2017-08-24T07:41:47.216Z,44288
2017-08-24T07:43:01.831Z,54944
2017-08-24T07:44:01.856Z,55200
2017-08-24T07:44:47.296Z,56000
2017-08-24T07:45:47.325Z,55904
2017-08-24T07:46:47.035Z,57792
2017-08-24T07:47:47.386Z,59392
2017-08-24T07:48:47.431Z,59360
2017-08-24T07:49:47.463Z,56384
2017-08-24T07:51:02.073Z,58656
2017-08-24T07:51:47.528Z,59104
2017-08-24T07:52:47.547Z,57952
2017-08-24T07:53:47.569Z,58432
2017-08-24T07:54:47.286Z,55712
2017-08-24T07:55:47.652Z,58464
2017-08-24T07:56:47.680Z,58240
2017-08-24T07:58:02.314Z,59136
2017-08-24T07:58:47.751Z,59680
2017-08-24T07:59:47.455Z,59680
2017-08-24T08:00:47.507Z,57376
2017-08-24T08:01:47.828Z,56768
2017-08-24T08:02:47.585Z,56160
2017-08-24T08:03:47.915Z,54464
2017-08-24T08:04:47.640Z,52320
2017-08-24T08:06:02.556Z,49536
2017-08-24T08:06:47.992Z,47424
2017-08-24T08:08:48.090Z,46240
2017-08-24T08:09:48.117Z,43776
2017-08-24T08:10:48.150Z,42624
2017-08-24T08:11:48.183Z,44960
2017-08-24T08:13:02.499Z,45824
2017-08-24T08:13:47.931Z,45248
2017-08-24T08:15:48.315Z,43552
2017-08-24T08:16:48.337Z,45120
2017-08-24T08:17:48.370Z,46112
2017-08-24T08:18:48.401Z,47616
2017-08-24T08:19:48.445Z,47264
2017-08-24T08:20:48.483Z,47136
2017-08-24T08:22:02.800Z,44800
2017-08-24T08:22:48.535Z,45600
2017-08-24T08:23:48.246Z,47520
2017-08-24T08:24:48.291Z,47264
2017-08-24T08:25:48.645Z,44288
2017-08-24T08:27:48.698Z,44640
2017-08-24T08:28:48.752Z,42944
2017-08-24T08:29:48.767Z,40896
2017-08-24T08:30:48.789Z,35168
2017-08-24T08:33:03.158Z,23360
2017-08-24T08:33:48.917Z,22432
2017-08-24T08:34:48.630Z,21856
2017-08-24T08:35:49.004Z,21472
2017-08-24T08:36:48.996Z,20224
2017-08-24T08:38:03.330Z,21056
2017-08-24T08:38:49.070Z,20448
2017-08-24T08:39:49.113Z,20032
2017-08-24T08:40:49.120Z,19872
2017-08-24T08:41:49.161Z,19680
2017-08-24T08:42:48.889Z,19136
2017-08-24T08:43:49.248Z,18880
2017-08-24T08:44:49.617Z,18464
2017-08-24T08:45:49.287Z,17856
2017-08-24T08:47:03.924Z,16964
2017-08-24T08:47:49.375Z,16364
2017-08-24T08:48:49.394Z,16464
2017-08-24T08:49:49.438Z,16748
2017-08-24T08:50:49.144Z,16360
2017-08-24T08:51:49.175Z,16352
2017-08-24T08:54:04.154Z,15868
2017-08-24T08:55:48.991Z,15580
2017-08-24T08:56:49.657Z,15612
2017-08-24T08:58:04.270Z,15636
2017-08-24T08:59:04.310Z,15620
2017-08-24T08:59:49.746Z,15632
2017-08-24T09:00:49.758Z,15876
2017-08-24T09:01:49.807Z,15512
2017-08-24T09:02:49.518Z,15364
2017-08-24T09:03:49.542Z,16012
2017-08-24T09:04:49.568Z,16332
2017-08-24T09:05:49.940Z,17120
2017-08-24T09:06:49.956Z,17568
2017-08-24T09:07:49.667Z,18112
2017-08-24T09:09:04.622Z,19616
2017-08-24T09:10:04.338Z,19712
2017-08-24T09:10:49.764Z,19872
2017-08-24T09:11:50.122Z,19776
2017-08-24T09:12:49.831Z,19712
2017-08-24T09:14:50.203Z,19936
2017-08-24T09:15:49.915Z,19936
2017-08-24T09:16:50.271Z,19808
2017-08-24T09:17:49.975Z,19200
2017-08-24T09:19:04.940Z,18432
2017-08-24T09:20:04.973Z,17888
2017-08-24T09:20:50.078Z,17632
2017-08-24T09:22:05.020Z,17184
2017-08-24T09:22:50.138Z,16680
2017-08-24T09:23:50.174Z,16808
2017-08-24T09:24:49.880Z,17024
2017-08-24T09:25:49.926Z,16596
2017-08-24T09:26:50.254Z,16592
2017-08-24T09:27:50.491Z,16992
2017-08-24T09:28:50.631Z,16716
2017-08-24T09:30:04.949Z,16392
2017-08-24T09:30:50.390Z,16272
2017-08-24T09:31:50.724Z,16160
2017-08-24T09:32:50.773Z,15636
2017-08-24T09:35:05.417Z,14800
2017-08-24T09:35:50.538Z,14576
2017-08-24T09:36:50.573Z,14468
2017-08-24T09:37:50.917Z,14280
2017-08-24T09:39:50.975Z,13572
2017-08-24T09:41:05.589Z,12776
2017-08-24T09:43:05.675Z,12460
2017-08-24T09:43:51.105Z,12232
2017-08-24T09:44:51.133Z,11764
2017-08-24T09:45:51.169Z,11380
2017-08-24T09:47:05.775Z,10980
2017-08-24T09:47:50.908Z,10884
2017-08-24T09:48:50.936Z,10896
2017-08-24T09:50:05.559Z,10928
2017-08-24T09:50:51.004Z,10952
2017-08-24T09:51:51.052Z,11000
2017-08-24T09:52:51.371Z,11096
2017-08-24T09:53:51.388Z,11156
2017-08-24T09:54:51.426Z,11244
2017-08-24T09:57:20.695Z,11164
2017-08-24T09:57:51.215Z,11128
2017-08-24T09:58:51.250Z,11056
2017-08-24T09:59:51.583Z,10972
2017-08-24T10:00:51.620Z,10840
2017-08-24T10:02:06.243Z,10568
2017-08-24T10:02:51.336Z,10360
2017-08-24T10:03:51.733Z,10004
2017-08-24T10:04:51.701Z,9540
2017-08-24T10:05:51.751Z,8728
2017-08-24T10:06:51.463Z,7668
2017-08-24T10:07:51.549Z,6656
2017-08-24T10:08:51.859Z,5432
2017-08-24T10:09:51.240Z,4432
2017-08-24T10:10:51.267Z,3792
2017-08-24T10:11:51.931Z,3448
2017-08-24T10:13:06.582Z,3204
2017-08-24T10:13:51.669Z,3024
2017-08-24T10:15:52.061Z,2608
2017-08-24T10:16:51.765Z,2516
2017-08-24T10:17:52.111Z,2464
2017-08-24T10:18:52.139Z,2396
2017-08-24T10:19:51.868Z,2352
2017-08-24T10:20:52.193Z,2340
2017-08-24T10:21:52.225Z,2372
2017-08-24T10:22:52.243Z,2404
2017-08-24T10:23:52.293Z,2464
2017-08-24T10:24:52.120Z,2576
2017-08-24T10:26:52.355Z,2964
2017-08-24T10:27:52.078Z,3216
2017-08-24T10:29:07.167Z,3524
2017-08-24T10:29:52.657Z,3708
2017-08-24T10:30:52.321Z,3984
2017-08-24T10:31:52.507Z,4304
2017-08-24T10:32:51.876Z,4608
2017-08-24T10:34:52.559Z,5392
2017-08-24T10:35:52.283Z,5920
2017-08-24T10:36:52.308Z,6452
2017-08-24T10:37:52.352Z,6936
2017-08-24T10:38:52.374Z,7396
2017-08-24T10:39:52.714Z,7844
2017-08-24T10:40:52.422Z,8284
2017-08-24T10:41:52.748Z,8664
2017-08-24T10:42:52.783Z,9016
2017-08-24T10:44:07.424Z,9384
2017-08-24T10:44:52.835Z,9584
2017-08-24T10:45:52.853Z,9812
2017-08-24T10:46:52.583Z,9988
2017-08-24T10:47:52.287Z,10064
2017-08-24T10:48:52.663Z,10044
2017-08-24T10:49:52.664Z,9716
2017-08-24T10:50:52.694Z,9596
2017-08-24T10:51:52.705Z,9652
2017-08-24T10:52:52.726Z,9760
2017-08-24T10:53:52.778Z,9868
2017-08-24T10:54:52.799Z,9864
2017-08-24T10:55:52.817Z,9904
2017-08-24T10:56:53.158Z,9916
2017-08-24T10:57:53.200Z,9864
2017-08-24T10:58:52.595Z,9960
2017-08-24T11:00:53.308Z,10112
2017-08-24T11:01:52.973Z,10248
2017-08-24T11:02:53.333Z,10248
2017-08-24T11:03:53.388Z,10308
2017-08-24T11:05:07.997Z,10504
2017-08-24T11:05:53.418Z,10748
2017-08-24T11:07:08.051Z,11532
2017-08-24T11:08:07.435Z,11744
2017-08-24T11:08:53.480Z,11588
2017-08-24T11:09:53.533Z,11676
2017-08-24T11:10:53.560Z,12432
2017-08-24T11:11:53.579Z,12812
2017-08-24T11:12:53.607Z,12868
2017-08-24T11:13:55.579Z,12672
2017-08-24T11:14:53.666Z,12504
2017-08-24T11:16:08.282Z,11972
2017-08-24T11:16:53.414Z,11888
2017-08-24T11:17:53.734Z,11712
2017-08-24T11:18:53.787Z,11524
2017-08-24T11:19:53.783Z,11356
2017-08-24T11:20:53.854Z,11200
2017-08-24T11:21:53.525Z,11064
2017-08-24T11:23:08.474Z,10916
2017-08-24T11:23:53.901Z,10860
2017-08-24T11:24:53.983Z,10928
2017-08-24T11:25:54.567Z,10984
2017-08-24T11:26:54.008Z,11072
2017-08-24T11:27:54.012Z,11212
2017-08-24T11:28:54.060Z,11196
2017-08-24T11:29:53.763Z,11204
2017-08-24T11:30:54.118Z,11132
2017-08-24T11:32:08.732Z,11292
2017-08-24T11:32:54.145Z,11436
2017-08-24T11:33:54.188Z,11544
2017-08-24T11:34:54.234Z,11556
2017-08-24T11:35:54.259Z,11440
2017-08-24T11:36:54.283Z,11324
2017-08-24T11:37:54.309Z,11324
2017-08-24T11:38:54.320Z,11404
2017-08-24T11:39:54.056Z,11480
2017-08-24T11:40:54.396Z,11604
2017-08-24T11:41:54.116Z,11512
2017-08-24T11:42:54.446Z,11360
2017-08-24T11:43:54.477Z,11280
2017-08-24T11:44:54.206Z,11272
2017-08-24T11:45:54.526Z,11192
2017-08-24T11:46:54.637Z,11104
2017-08-24T11:48:09.200Z,10716
2017-08-24T11:48:54.589Z,10968
2017-08-24T11:49:54.323Z,11092
2017-08-24T11:50:54.355Z,11152
2017-08-24T11:52:54.420Z,10972
2017-08-24T11:53:54.454Z,10892
2017-08-24T11:54:54.448Z,10824
2017-08-24T11:55:54.802Z,10768
2017-08-24T11:56:54.839Z,10520
2017-08-24T11:57:54.876Z,10288
2017-08-24T11:58:54.906Z,9820
2017-08-24T11:59:54.910Z,9656
2017-08-24T12:00:54.970Z,9964
2017-08-24T12:01:54.979Z,9820
2017-08-24T12:02:55.020Z,9816
2017-08-24T12:04:09.626Z,9832
2017-08-24T12:04:55.085Z,9584
2017-08-24T12:05:54.792Z,9508
2017-08-24T12:06:54.809Z,9696
2017-08-24T12:08:09.760Z,9632
2017-08-24T12:08:55.156Z,9640
2017-08-24T12:10:09.821Z,9760
2017-08-24T12:10:54.936Z,9836
2017-08-24T12:11:55.290Z,9864
2017-08-24T12:12:55.324Z,10088
2017-08-24T12:13:55.024Z,10040
2017-08-24T12:14:55.038Z,9948
2017-08-24T12:16:55.425Z,9804
2017-08-24T12:17:55.457Z,10028
2017-08-24T12:19:09.749Z,10152
2017-08-24T12:21:10.133Z,10160
2017-08-24T12:21:55.564Z,10004
2017-08-24T12:22:55.585Z,10000
2017-08-24T12:23:55.606Z,9876
2017-08-24T12:24:55.645Z,9828
2017-08-24T12:25:55.360Z,9664
2017-08-24T12:26:55.393Z,9652
2017-08-24T12:28:55.777Z,10112
2017-08-24T12:29:55.788Z,10472
2017-08-24T12:30:55.500Z,10568
2017-08-24T12:31:55.533Z,10092
2017-08-24T12:32:55.901Z,9392
2017-08-24T12:33:55.901Z,9456
2017-08-24T12:34:55.909Z,9668
2017-08-24T12:36:56.001Z,9472
2017-08-24T12:37:56.009Z,9448
2017-08-24T12:38:56.314Z,9396
2017-08-24T12:39:55.753Z,9552
2017-08-24T12:40:56.111Z,9728
2017-08-24T12:41:56.113Z,9856
2017-08-24T12:43:10.771Z,9712
2017-08-24T12:43:56.496Z,9500
2017-08-24T12:44:56.209Z,9972
2017-08-24T12:46:10.837Z,9864
2017-08-24T12:47:55.982Z,9628
2017-08-24T12:48:56.334Z,9708
2017-08-24T12:49:56.345Z,9616
2017-08-24T12:51:10.994Z,9528
2017-08-24T12:51:56.408Z,9500
2017-08-24T12:53:11.045Z,9304
2017-08-24T12:53:56.169Z,9424
2017-08-24T12:54:56.495Z,9496
2017-08-24T12:55:56.538Z,9500
2017-08-24T12:57:56.588Z,9336
2017-08-24T12:58:56.624Z,8576
2017-08-24T13:00:56.688Z,10040
2017-08-24T13:01:56.376Z,9840
2017-08-24T13:03:11.022Z,9468
2017-08-24T13:03:56.129Z,9216
2017-08-24T13:04:56.478Z,8936
2017-08-24T13:05:56.502Z,9172
2017-08-24T13:07:11.454Z,9736
2017-08-24T13:07:56.576Z,10696
2017-08-24T13:08:56.577Z,9780
2017-08-24T13:09:56.619Z,9424
2017-08-24T13:10:56.648Z,9196
2017-08-24T13:11:56.669Z,9136
2017-08-24T13:12:56.402Z,9084
2017-08-24T13:14:11.657Z,9096
2017-08-24T13:16:11.710Z,9084
2017-08-24T13:16:57.115Z,9004
2017-08-24T13:18:11.770Z,8908
2017-08-24T13:19:56.918Z,8944
2017-08-24T13:20:56.981Z,9112
2017-08-24T13:21:56.629Z,9244
2017-08-24T13:23:11.904Z,9096
2017-08-24T13:23:56.996Z,9052
2017-08-24T13:25:11.958Z,9236
2017-08-24T13:25:57.387Z,9312
2017-08-24T13:26:57.421Z,9352
2017-08-24T13:27:57.455Z,8628
2017-08-24T13:28:57.195Z,8236
2017-08-24T13:29:57.507Z,7992
2017-08-24T13:31:11.808Z,7880
2017-08-24T13:31:57.257Z,7872
2017-08-24T13:33:11.865Z,7904
2017-08-24T13:33:57.625Z,7896
2017-08-24T13:34:57.647Z,7964
2017-08-24T13:35:57.717Z,7900
2017-08-24T13:37:12.291Z,7668
2017-08-24T13:37:57.743Z,7504
2017-08-24T13:39:12.349Z,7464
2017-08-24T13:40:12.069Z,7488
2017-08-24T13:40:57.799Z,7436
2017-08-24T13:42:57.250Z,7284
2017-08-24T13:43:57.590Z,7124
2017-08-24T13:44:57.943Z,6816
2017-08-24T13:45:57.948Z,6436
2017-08-24T13:46:57.989Z,5992
2017-08-24T13:47:57.686Z,5540
2017-08-24T13:48:58.036Z,5252
2017-08-24T13:49:57.748Z,5264
2017-08-24T13:50:58.097Z,5396
2017-08-24T13:51:57.820Z,5588
2017-08-24T13:54:12.790Z,5624
2017-08-24T13:54:58.231Z,5484
2017-08-24T13:56:12.838Z,5140
2017-08-24T13:56:57.963Z,4800
2017-08-24T13:57:58.309Z,4344
2017-08-24T13:58:58.019Z,4176
2017-08-24T13:59:58.031Z,3848
2017-08-24T14:01:12.671Z,3420
2017-08-24T14:01:58.389Z,3152
2017-08-24T14:02:57.807Z,2948
2017-08-24T14:03:58.142Z,2868
2017-08-24T14:06:58.228Z,1900
2017-08-24T14:08:12.845Z,1608
2017-08-24T14:08:57.969Z,1572
2017-08-24T14:09:57.988Z,1572
2017-08-24T14:11:58.382Z,1928
2017-08-24T14:12:58.717Z,2000
2017-08-24T14:13:58.124Z,1928
2017-08-24T14:14:58.131Z,1988
2017-08-24T14:16:13.087Z,2096
2017-08-24T14:16:58.819Z,2096
2017-08-24T14:17:58.220Z,2112
2017-08-24T14:18:57.930Z,2252
2017-08-24T14:19:58.578Z,2280
2017-08-24T14:20:58.622Z,2316
2017-08-24T14:21:58.343Z,2376
2017-08-24T14:22:58.678Z,2508
2017-08-24T14:23:58.445Z,2464
2017-08-24T14:24:58.724Z,2408
2017-08-24T14:26:13.667Z,2336
2017-08-24T14:27:13.696Z,2348
2017-08-24T14:27:59.107Z,2392
2017-08-24T14:28:58.845Z,2648
2017-08-24T14:30:13.787Z,2824
2017-08-24T14:31:13.791Z,3196
2017-08-24T14:31:58.919Z,3468
2017-08-24T14:32:58.937Z,3564
2017-08-24T14:33:58.978Z,3532
2017-08-24T14:34:59.009Z,3416
2017-08-24T14:36:13.936Z,3168
2017-08-24T14:36:59.347Z,3096
2017-08-24T14:37:59.407Z,3192
2017-08-24T14:38:59.104Z,3824